sensor_id;sensor_type;location;lat;lon;timestamp;pressure;altitude;pressure_sealevel;temperature
65738;BMP280;52478;51.844;6.582;2023-08-07T00:02:16;100807.19;;;24.13
65738;BMP280;52478;51.844;6.582;2023-08-07T00:04:43;100807.19;;;24.13
65738;BMP280;52478;51.844;6.582;2023-08-07T00:07:09;100798.81;;;24.13
65738;BMP280;52478;51.844;6.582;2023-08-07T00:09:37;100802.88;;;24.12
65738;BMP280;52478;51.844;6.582;2023-08-07T00:12:04;100797.28;;;24.12
65738;BMP280;52478;51.844;6.582;2023-08-07T00:14:30;100805.66;;;24.12
65738;BMP280;52478;51.844;6.582;2023-08-07T00:16:57;100804.94;;;24.12
65738;BMP280;52478;51.844;6.582;2023-08-07T00:19:23;100804.94;;;24.12
65738;BMP280;52478;51.844;6.582;2023-08-07T00:21:50;100798.56;;;24.11
65738;BMP280;52478;51.844;6.582;2023-08-07T00:24:16;100801.38;;;24.11
65738;BMP280;52478;51.844;6.582;2023-08-07T00:26:44;100801.38;;;24.11
65738;BMP280;52478;51.844;6.582;2023-08-07T00:29:11;100799.34;;;24.12
65738;BMP280;52478;51.844;6.582;2023-08-07T00:31:37;100802.69;;;24.10
65738;BMP280;52478;51.844;6.582;2023-08-07T00:34:04;100808.28;;;24.10
65738;BMP280;52478;51.844;6.582;2023-08-07T00:36:30;100803.97;;;24.09
65738;BMP280;52478;51.844;6.582;2023-08-07T00:39:00;100815.16;;;24.09
65738;BMP280;52478;51.844;6.582;2023-08-07T00:41:28;100803.97;;;24.09
65738;BMP280;52478;51.844;6.582;2023-08-07T00:43:55;100806.78;;;24.09
65738;BMP280;52478;51.844;6.582;2023-08-07T00:46:22;100822.28;;;24.10
65738;BMP280;52478;51.844;6.582;2023-08-07T00:48:49;100810.88;;;24.08
65738;BMP280;52478;51.844;6.582;2023-08-07T00:51:15;100803.97;;;24.09
65738;BMP280;52478;51.844;6.582;2023-08-07T00:53:43;100812.38;;;24.09
65738;BMP280;52478;51.844;6.582;2023-08-07T00:56:09;100810.88;;;24.08
65738;BMP280;52478;51.844;6.582;2023-08-07T00:58:36;100819.06;;;24.06
65738;BMP280;52478;51.844;6.582;2023-08-07T01:01:04;100813.47;;;24.06
65738;BMP280;52478;51.844;6.582;2023-08-07T01:03:31;100819.06;;;24.06
65738;BMP280;52478;51.844;6.582;2023-08-07T01:05:57;100813.47;;;24.06
65738;BMP280;52478;51.844;6.582;2023-08-07T01:08:24;100814.94;;;24.07
65738;BMP280;52478;51.844;6.582;2023-08-07T01:11:07;100814.22;;;24.07
65738;BMP280;52478;51.844;6.582;2023-08-07T01:13:42;100811.97;;;24.05
65738;BMP280;52478;51.844;6.582;2023-08-07T01:16:16;100809.16;;;24.05
65738;BMP280;52478;51.844;6.582;2023-08-07T01:18:45;100813.47;;;24.06
65738;BMP280;52478;51.844;6.582;2023-08-07T01:21:17;100811.97;;;24.05
65738;BMP280;52478;51.844;6.582;2023-08-07T01:23:45;100823.13;;;24.05
65738;BMP280;52478;51.844;6.582;2023-08-07T01:26:12;100814.75;;;24.05
65738;BMP280;52478;51.844;6.582;2023-08-07T01:28:42;100823.13;;;24.05
65738;BMP280;52478;51.844;6.582;2023-08-07T01:31:14;100824.44;;;24.04
65738;BMP280;52478;51.844;6.582;2023-08-07T01:33:47;100821.63;;;24.04
65738;BMP280;52478;51.844;6.582;2023-08-07T01:36:17;100823.66;;;24.04
65738;BMP280;52478;51.844;6.582;2023-08-07T01:38:45;100821.63;;;24.04
65738;BMP280;52478;51.844;6.582;2023-08-07T01:41:14;100820.13;;;24.03
65738;BMP280;52478;51.844;6.582;2023-08-07T01:43:41;100834.13;;;24.03
65738;BMP280;52478;51.844;6.582;2023-08-07T01:46:07;100825.34;;;23.99
65738;BMP280;52478;51.844;6.582;2023-08-07T01:48:33;100838.97;;;24.03
65738;BMP280;52478;51.844;6.582;2023-08-07T01:51:00;100836.19;;;24.03
65738;BMP280;52478;51.844;6.582;2023-08-07T01:53:26;100832.63;;;24.02
65738;BMP280;52478;51.844;6.582;2023-08-07T01:55:54;100829.81;;;24.02
65738;BMP280;52478;51.844;6.582;2023-08-07T01:58:21;100843.06;;;24.02
65738;BMP280;52478;51.844;6.582;2023-08-07T02:00:47;100845.31;;;24.03
65738;BMP280;52478;51.844;6.582;2023-08-07T02:03:15;100845.09;;;24.01
65738;BMP280;52478;51.844;6.582;2023-08-07T02:05:41;100849.91;;;24.01
65738;BMP280;52478;51.844;6.582;2023-08-07T02:08:08;100847.88;;;24.01
65738;BMP280;52478;51.844;6.582;2023-08-07T02:10:34;100847.88;;;24.01
65738;BMP280;52478;51.844;6.582;2023-08-07T02:13:02;100852.19;;;24.02
65738;BMP280;52478;51.844;6.582;2023-08-07T02:15:28;100853.47;;;24.01
65738;BMP280;52478;51.844;6.582;2023-08-07T02:17:55;100856.28;;;24.01
65738;BMP280;52478;51.844;6.582;2023-08-07T02:20:21;100855.50;;;24.01
65738;BMP280;52478;51.844;6.582;2023-08-07T02:22:48;100860.38;;;24.00
65738;BMP280;52478;51.844;6.582;2023-08-07T02:25:15;100859.63;;;24.00
65738;BMP280;52478;51.844;6.582;2023-08-07T02:27:41;100857.56;;;24.00
65738;BMP280;52478;51.844;6.582;2023-08-07T02:30:09;100870.06;;;23.99
65738;BMP280;52478;51.844;6.582;2023-08-07T02:32:36;100863.72;;;23.99
65738;BMP280;52478;51.844;6.582;2023-08-07T02:35:03;100859.41;;;23.98
65738;BMP280;52478;51.844;6.582;2023-08-07T02:37:30;100858.13;;;23.99
65738;BMP280;52478;51.844;6.582;2023-08-07T02:39:56;100855.31;;;23.99
65738;BMP280;52478;51.844;6.582;2023-08-07T02:42:23;100865.75;;;23.98
65738;BMP280;52478;51.844;6.582;2023-08-07T02:44:49;100867.81;;;23.98
65738;BMP280;52478;51.844;6.582;2023-08-07T02:47:17;100868.53;;;23.98
65738;BMP280;52478;51.844;6.582;2023-08-07T02:49:43;100873.41;;;23.98
65738;BMP280;52478;51.844;6.582;2023-08-07T02:52:10;100861.44;;;23.97
65738;BMP280;52478;51.844;6.582;2023-08-07T02:54:36;100872.63;;;23.97
65738;BMP280;52478;51.844;6.582;2023-08-07T02:57:03;100870.38;;;23.96
65738;BMP280;52478;51.844;6.582;2023-08-07T02:59:29;100876.75;;;23.96
65738;BMP280;52478;51.844;6.582;2023-08-07T03:01:56;100873.94;;;23.96
65738;BMP280;52478;51.844;6.582;2023-08-07T03:04:24;100877.50;;;23.97
65738;BMP280;52478;51.844;6.582;2023-08-07T03:06:50;100875.25;;;23.95
65738;BMP280;52478;51.844;6.582;2023-08-07T03:09:17;100871.69;;;23.95
65738;BMP280;52478;51.844;6.582;2023-08-07T03:11:43;100873.75;;;23.94
65738;BMP280;52478;51.844;6.582;2023-08-07T03:14:10;100873.75;;;23.94
65738;BMP280;52478;51.844;6.582;2023-08-07T03:16:36;100873.75;;;23.94
65738;BMP280;52478;51.844;6.582;2023-08-07T03:19:03;100870.19;;;23.94
65738;BMP280;52478;51.844;6.582;2023-08-07T03:21:30;100877.09;;;23.93
65738;BMP280;52478;51.844;6.582;2023-08-07T03:23:58;100877.09;;;23.93
65738;BMP280;52478;51.844;6.582;2023-08-07T03:26:24;100865.91;;;23.93
65738;BMP280;52478;51.844;6.582;2023-08-07T03:28:51;100869.41;;;23.93
65738;BMP280;52478;51.844;6.582;2023-08-07T03:31:17;100870.72;;;23.92
65738;BMP280;52478;51.844;6.582;2023-08-07T03:33:44;100865.91;;;23.93
65738;BMP280;52478;51.844;6.582;2023-08-07T03:36:10;100872.97;;;23.94
65738;BMP280;52478;51.844;6.582;2023-08-07T03:38:38;100865.91;;;23.93
65738;BMP280;52478;51.844;6.582;2023-08-07T03:41:04;100866.63;;;23.93
65738;BMP280;52478;51.844;6.582;2023-08-07T03:43:31;100865.91;;;23.93
65738;BMP280;52478;51.844;6.582;2023-08-07T03:45:57;100867.94;;;23.92
65738;BMP280;52478;51.844;6.582;2023-08-07T03:48:24;100863.41;;;23.89
65738;BMP280;52478;51.844;6.582;2023-08-07T03:50:51;100867.94;;;23.92
65738;BMP280;52478;51.844;6.582;2023-08-07T03:53:17;100865.13;;;23.92
65738;BMP280;52478;51.844;6.582;2023-08-07T03:55:50;100859.56;;;23.92
65738;BMP280;52478;51.844;6.582;2023-08-07T03:58:17;100860.06;;;23.91
65738;BMP280;52478;51.844;6.582;2023-08-07T04:00:43;100854.47;;;23.91
65738;BMP280;52478;51.844;6.582;2023-08-07T04:03:10;100850.94;;;23.90
65738;BMP280;52478;51.844;6.582;2023-08-07T04:05:36;100849.44;;;23.89
65738;BMP280;52478;51.844;6.582;2023-08-07T04:08:03;100843.84;;;23.89
65738;BMP280;52478;51.844;6.582;2023-08-07T04:10:29;100844.63;;;23.90
65738;BMP280;52478;51.844;6.582;2023-08-07T04:12:57;100852.25;;;23.89
65738;BMP280;52478;51.844;6.582;2023-08-07T04:15:24;100848.69;;;23.89
65738;BMP280;52478;51.844;6.582;2023-08-07T04:17:50;100850.72;;;23.88
65738;BMP280;52478;51.844;6.582;2023-08-07T04:20:17;100847.94;;;23.88
65738;BMP280;52478;51.844;6.582;2023-08-07T04:22:45;100846.44;;;23.87
65738;BMP280;52478;51.844;6.582;2023-08-07T04:25:11;100845.13;;;23.88
65738;BMP280;52478;51.844;6.582;2023-08-07T04:27:38;100849.22;;;23.87
65738;BMP280;52478;51.844;6.582;2023-08-07T04:30:07;100849.22;;;23.87
65738;BMP280;52478;51.844;6.582;2023-08-07T04:32:34;100841.59;;;23.88
65738;BMP280;52478;51.844;6.582;2023-08-07T04:35:00;100849.44;;;23.89
65738;BMP280;52478;51.844;6.582;2023-08-07T04:37:27;100847.94;;;23.88
65738;BMP280;52478;51.844;6.582;2023-08-07T04:39:55;100859.88;;;23.89
65738;BMP280;52478;51.844;6.582;2023-08-07T04:42:22;100852.03;;;23.87
65738;BMP280;52478;51.844;6.582;2023-08-07T04:44:48;100849.44;;;23.89
65738;BMP280;52478;51.844;6.582;2023-08-07T04:47:16;100881.50;;;23.88
65738;BMP280;52478;51.844;6.582;2023-08-07T04:49:43;100856.31;;;23.88
65738;BMP280;52478;51.844;6.582;2023-08-07T04:52:09;100847.94;;;23.88
65738;BMP280;52478;51.844;6.582;2023-08-07T04:54:36;100862.69;;;23.89
65738;BMP280;52478;51.844;6.582;2023-08-07T04:57:03;100861.19;;;23.88
65738;BMP280;52478;51.844;6.582;2023-08-07T04:59:29;100863.97;;;23.88
65738;BMP280;52478;51.844;6.582;2023-08-07T05:01:57;100861.91;;;23.88
65738;BMP280;52478;51.844;6.582;2023-08-07T05:04:25;100872.88;;;23.86
65738;BMP280;52478;51.844;6.582;2023-08-07T05:06:51;100868.03;;;23.87
65738;BMP280;52478;51.844;6.582;2023-08-07T05:09:17;100868.81;;;23.87
65738;BMP280;52478;51.844;6.582;2023-08-07T05:11:44;100870.81;;;23.87
65738;BMP280;52478;51.844;6.582;2023-08-07T05:14:11;100875.91;;;23.88
65738;BMP280;52478;51.844;6.582;2023-08-07T05:16:37;100868.03;;;23.87
65738;BMP280;52478;51.844;6.582;2023-08-07T05:19:04;100885.56;;;23.87
65738;BMP280;52478;51.844;6.582;2023-08-07T05:21:32;100880.75;;;23.88
65738;BMP280;52478;51.844;6.582;2023-08-07T05:23:58;100881.50;;;23.88
65738;BMP280;52478;51.844;6.582;2023-08-07T05:26:25;100884.06;;;23.86
65738;BMP280;52478;51.844;6.582;2023-08-07T05:28:51;100900.84;;;23.86
65738;BMP280;52478;51.844;6.582;2023-08-07T05:31:19;100898.03;;;23.86
65738;BMP280;52478;51.844;6.582;2023-08-07T05:33:46;100903.66;;;23.86
65738;BMP280;52478;51.844;6.582;2023-08-07T05:36:12;100896.56;;;23.85
65738;BMP280;52478;51.844;6.582;2023-08-07T05:38:40;100900.09;;;23.86
65738;BMP280;52478;51.844;6.582;2023-08-07T05:41:08;100900.84;;;23.86
65738;BMP280;52478;51.844;6.582;2023-08-07T05:43:35;100912.03;;;23.86
65738;BMP280;52478;51.844;6.582;2023-08-07T05:46:01;100923.94;;;23.87
65738;BMP280;52478;51.844;6.582;2023-08-07T05:48:28;100911.50;;;23.88
65738;BMP280;52478;51.844;6.582;2023-08-07T05:50:54;100913.53;;;23.87
65738;BMP280;52478;51.844;6.582;2023-08-07T05:53:21;100918.34;;;23.87
65738;BMP280;52478;51.844;6.582;2023-08-07T05:55:49;100912.25;;;23.88
65738;BMP280;52478;51.844;6.582;2023-08-07T05:58:16;100909.97;;;23.87
65738;BMP280;52478;51.844;6.582;2023-08-07T06:00:42;100927.50;;;23.87
65738;BMP280;52478;51.844;6.582;2023-08-07T06:03:09;100930.31;;;23.87
65738;BMP280;52478;51.844;6.582;2023-08-07T06:05:35;100933.09;;;23.87
65738;BMP280;52478;51.844;6.582;2023-08-07T06:08:02;100916.31;;;23.87
65738;BMP280;52478;51.844;6.582;2023-08-07T06:10:28;100914.81;;;23.86
65738;BMP280;52478;51.844;6.582;2023-08-07T06:12:56;100926.00;;;23.86
65738;BMP280;52478;51.844;6.582;2023-08-07T06:15:23;100922.47;;;23.86
65738;BMP280;52478;51.844;6.582;2023-08-07T06:17:49;100916.16;;;23.85
65738;BMP280;52478;51.844;6.582;2023-08-07T06:20:17;100926.56;;;23.85
65738;BMP280;52478;51.844;6.582;2023-08-07T06:22:44;100932.66;;;23.83
65738;BMP280;52478;51.844;6.582;2023-08-07T06:25:10;100929.88;;;23.83
65738;BMP280;52478;51.844;6.582;2023-08-07T06:27:37;100929.88;;;23.83
65738;BMP280;52478;51.844;6.582;2023-08-07T06:30:06;100939.78;;;23.84
65738;BMP280;52478;51.844;6.582;2023-08-07T06:32:33;100939.78;;;23.84
65738;BMP280;52478;51.844;6.582;2023-08-07T06:34:59;100956.53;;;23.84
65738;BMP280;52478;51.844;6.582;2023-08-07T06:37:26;100958.59;;;23.84
65738;BMP280;52478;51.844;6.582;2023-08-07T06:39:52;100964.19;;;23.84
65738;BMP280;52478;51.844;6.582;2023-08-07T06:42:19;100955.03;;;23.83
65738;BMP280;52478;51.844;6.582;2023-08-07T06:44:46;100960.88;;;23.85
65738;BMP280;52478;51.844;6.582;2023-08-07T06:47:14;100966.22;;;23.83
65738;BMP280;52478;51.844;6.582;2023-08-07T06:49:40;100969.03;;;23.83
65738;BMP280;52478;51.844;6.582;2023-08-07T06:52:07;100969.03;;;23.83
65738;BMP280;52478;51.844;6.582;2023-08-07T06:54:33;100980.97;;;23.84
65738;BMP280;52478;51.844;6.582;2023-08-07T06:57:00;100982.22;;;23.83
65738;BMP280;52478;51.844;6.582;2023-08-07T06:59:26;100989.91;;;23.82
65738;BMP280;52478;51.844;6.582;2023-08-07T07:01:53;101002.56;;;23.83
65738;BMP280;52478;51.844;6.582;2023-08-07T07:04:20;100990.63;;;23.83
65738;BMP280;52478;51.844;6.582;2023-08-07T07:06:47;101002.56;;;23.83
65738;BMP280;52478;51.844;6.582;2023-08-07T07:09:13;101006.69;;;23.82
65738;BMP280;52478;51.844;6.582;2023-08-07T07:11:42;100999.78;;;23.83
65738;BMP280;52478;51.844;6.582;2023-08-07T07:14:09;101019.34;;;23.83
65738;BMP280;52478;51.844;6.582;2023-08-07T07:16:35;101022.13;;;23.83
65738;BMP280;52478;51.844;6.582;2023-08-07T07:19:03;101030.53;;;23.83
65738;BMP280;52478;51.844;6.582;2023-08-07T07:21:31;101024.16;;;23.83
65738;BMP280;52478;51.844;6.582;2023-08-07T07:23:57;101032.03;;;23.84
65738;BMP280;52478;51.844;6.582;2023-08-07T07:26:24;101036.13;;;23.83
65738;BMP280;52478;51.844;6.582;2023-08-07T07:28:51;101037.63;;;23.84
65738;BMP280;52478;51.844;6.582;2023-08-07T07:31:17;101040.94;;;23.83
65738;BMP280;52478;51.844;6.582;2023-08-07T07:33:44;101036.88;;;23.84
65738;BMP280;52478;51.844;6.582;2023-08-07T07:36:14;101036.13;;;23.83
65738;BMP280;52478;51.844;6.582;2023-08-07T07:38:42;101048.06;;;23.84
65738;BMP280;52478;51.844;6.582;2023-08-07T07:41:09;101050.09;;;23.83
65738;BMP280;52478;51.844;6.582;2023-08-07T07:43:36;101064.84;;;23.84
65738;BMP280;52478;51.844;6.582;2023-08-07T07:46:03;101065.59;;;23.84
65738;BMP280;52478;51.844;6.582;2023-08-07T07:48:29;101065.59;;;23.84
65738;BMP280;52478;51.844;6.582;2023-08-07T07:50:58;101064.31;;;23.85
65738;BMP280;52478;51.844;6.582;2023-08-07T07:53:24;101062.28;;;23.86
65738;BMP280;52478;51.844;6.582;2023-08-07T07:55:52;101063.00;;;23.86
65738;BMP280;52478;51.844;6.582;2023-08-07T07:58:19;101073.44;;;23.86
65738;BMP280;52478;51.844;6.582;2023-08-07T08:00:46;101079.78;;;23.86
65738;BMP280;52478;51.844;6.582;2023-08-07T08:03:12;101075.69;;;23.87
65738;BMP280;52478;51.844;6.582;2023-08-07T08:05:39;101086.88;;;23.87
65738;BMP280;52478;51.844;6.582;2023-08-07T08:08:06;101082.81;;;23.88
65738;BMP280;52478;51.844;6.582;2023-08-07T08:10:33;101084.31;;;23.89
65738;BMP280;52478;51.844;6.582;2023-08-07T08:13:01;101089.91;;;23.89
65738;BMP280;52478;51.844;6.582;2023-08-07T08:15:29;101091.97;;;23.89
65738;BMP280;52478;51.844;6.582;2023-08-07T08:17:55;101097.00;;;23.90
65738;BMP280;52478;51.844;6.582;2023-08-07T08:20:22;101108.19;;;23.90
65738;BMP280;52478;51.844;6.582;2023-08-07T08:22:48;101102.59;;;23.90
65738;BMP280;52478;51.844;6.582;2023-08-07T08:25:16;101103.59;;;23.93
65738;BMP280;52478;51.844;6.582;2023-08-07T08:27:43;101101.50;;;23.93
65738;BMP280;52478;51.844;6.582;2023-08-07T08:30:11;101103.03;;;23.94
65738;BMP280;52478;51.844;6.582;2023-08-07T08:32:38;101106.06;;;23.96
65738;BMP280;52478;51.844;6.582;2023-08-07T08:35:06;101105.00;;;23.99
65738;BMP280;52478;51.844;6.582;2023-08-07T08:37:32;101105.19;;;24.01
65738;BMP280;52478;51.844;6.582;2023-08-07T08:39:59;101107.44;;;24.03
65738;BMP280;52478;51.844;6.582;2023-08-07T08:42:26;101110.44;;;24.05
65738;BMP280;52478;51.844;6.582;2023-08-07T08:44:54;101117.31;;;24.04
65738;BMP280;52478;51.844;6.582;2023-08-07T08:47:23;101132.72;;;24.10
65738;BMP280;52478;51.844;6.582;2023-08-07T08:49:57;101113.78;;;24.16
65738;BMP280;52478;51.844;6.582;2023-08-07T08:52:26;101122.41;;;24.18
65738;BMP280;52478;51.844;6.582;2023-08-07T08:54:53;101123.91;;;24.19
65738;BMP280;52478;51.844;6.582;2023-08-07T08:57:20;101123.91;;;24.19
65738;BMP280;52478;51.844;6.582;2023-08-07T08:59:47;101143.69;;;24.21
65738;BMP280;52478;51.844;6.582;2023-08-07T09:02:14;101124.34;;;24.23
65738;BMP280;52478;51.844;6.582;2023-08-07T09:04:43;101125.63;;;24.22
65738;BMP280;52478;51.844;6.582;2023-08-07T09:07:10;101121.88;;;24.20
65738;BMP280;52478;51.844;6.582;2023-08-07T09:09:39;101126.50;;;24.17
65738;BMP280;52478;51.844;6.582;2023-08-07T09:12:08;101126.50;;;24.17
65738;BMP280;52478;51.844;6.582;2023-08-07T09:14:39;101125.94;;;24.19
65738;BMP280;52478;51.844;6.582;2023-08-07T09:17:07;101133.81;;;24.20
65738;BMP280;52478;51.844;6.582;2023-08-07T09:19:34;101135.97;;;24.27
65738;BMP280;52478;51.844;6.582;2023-08-07T09:22:02;101148.84;;;24.30
65738;BMP280;52478;51.844;6.582;2023-08-07T09:24:29;101146.72;;;24.36
65738;BMP280;52478;51.844;6.582;2023-08-07T09:26:55;101152.50;;;24.38
65738;BMP280;52478;51.844;6.582;2023-08-07T09:29:23;101163.38;;;24.41
65738;BMP280;52478;51.844;6.582;2023-08-07T09:31:50;101156.72;;;24.44
65738;BMP280;52478;51.844;6.582;2023-08-07T09:34:20;101163.06;;;24.45
65738;BMP280;52478;51.844;6.582;2023-08-07T09:36:46;101161.75;;;24.46
65738;BMP280;52478;51.844;6.582;2023-08-07T09:39:14;101161.00;;;24.45
65738;BMP280;52478;51.844;6.582;2023-08-07T09:41:40;101167.16;;;24.44
65738;BMP280;52478;51.844;6.582;2023-08-07T09:44:07;101166.41;;;24.43
65738;BMP280;52478;51.844;6.582;2023-08-07T09:46:41;101157.47;;;24.45
65738;BMP280;52478;51.844;6.582;2023-08-07T09:49:07;101163.59;;;24.43
65738;BMP280;52478;51.844;6.582;2023-08-07T09:51:41;101161.13;;;24.40
65738;BMP280;52478;51.844;6.582;2023-08-07T09:54:08;101166.94;;;24.42
65738;BMP280;52478;51.844;6.582;2023-08-07T09:56:36;101165.63;;;24.43
65738;BMP280;52478;51.844;6.582;2023-08-07T09:59:03;101173.84;;;24.41
65738;BMP280;52478;51.844;6.582;2023-08-07T10:01:29;101166.41;;;24.43
65738;BMP280;52478;51.844;6.582;2023-08-07T10:03:57;101169.09;;;24.49
65738;BMP280;52478;51.844;6.582;2023-08-07T10:06:23;101179.97;;;24.52
65738;BMP280;52478;51.844;6.582;2023-08-07T10:08:51;101170.78;;;24.52
65738;BMP280;52478;51.844;6.582;2023-08-07T10:11:18;101177.06;;;24.58
65738;BMP280;52478;51.844;6.582;2023-08-07T10:13:46;101178.97;;;24.63
65738;BMP280;52478;51.844;6.582;2023-08-07T10:16:13;101182.00;;;24.65
65738;BMP280;52478;51.844;6.582;2023-08-07T10:18:40;101183.03;;;24.62
65738;BMP280;52478;51.844;6.582;2023-08-07T10:21:06;101192.31;;;24.70
65738;BMP280;52478;51.844;6.582;2023-08-07T10:23:35;101194.78;;;24.73
65738;BMP280;52478;51.844;6.582;2023-08-07T10:26:02;101192.19;;;24.75
65738;BMP280;52478;51.844;6.582;2023-08-07T10:28:31;101203.06;;;24.79
65738;BMP280;52478;51.844;6.582;2023-08-07T10:31:00;101200.50;;;24.81
65738;BMP280;52478;51.844;6.582;2023-08-07T10:33:27;101202.19;;;24.84
65738;BMP280;52478;51.844;6.582;2023-08-07T10:35:54;101199.41;;;24.84
65738;BMP280;52478;51.844;6.582;2023-08-07T10:38:23;101216.97;;;24.84
65738;BMP280;52478;51.844;6.582;2023-08-07T10:41:00;101202.41;;;24.86
65738;BMP280;52478;51.844;6.582;2023-08-07T10:43:27;101213.63;;;24.86
65738;BMP280;52478;51.844;6.582;2023-08-07T10:45:53;101216.63;;;24.88
65738;BMP280;52478;51.844;6.582;2023-08-07T10:48:21;101211.66;;;24.94
65738;BMP280;52478;51.844;6.582;2023-08-07T10:50:56;101219.53;;;24.95
65738;BMP280;52478;51.844;6.582;2023-08-07T10:53:29;101224.06;;;24.98
65738;BMP280;52478;51.844;6.582;2023-08-07T10:55:56;101217.91;;;25.00
65738;BMP280;52478;51.844;6.582;2023-08-07T10:58:24;101213.81;;;25.01
65738;BMP280;52478;51.844;6.582;2023-08-07T11:00:52;101224.25;;;25.00
65738;BMP280;52478;51.844;6.582;2023-08-07T11:03:42;101219.41;;;25.01
65738;BMP280;52478;51.844;6.582;2023-08-07T11:06:09;101228.75;;;25.03
65738;BMP280;52478;51.844;6.582;2023-08-07T11:08:35;101230.28;;;25.04
65738;BMP280;52478;51.844;6.582;2023-08-07T11:11:04;101228.00;;;25.03
65738;BMP280;52478;51.844;6.582;2023-08-07T11:13:31;101228.75;;;25.03
65738;BMP280;52478;51.844;6.582;2023-08-07T11:15:57;101242.25;;;25.05
65738;BMP280;52478;51.844;6.582;2023-08-07T11:18:24;101242.28;;;24.92
65738;BMP280;52478;51.844;6.582;2023-08-07T11:20:53;101244.31;;;24.91
65738;BMP280;52478;51.844;6.582;2023-08-07T11:23:23;101231.06;;;24.92
65738;BMP280;52478;51.844;6.582;2023-08-07T11:25:49;101236.88;;;24.94
65738;BMP280;52478;51.844;6.582;2023-08-07T11:28:17;101237.81;;;24.96
65738;BMP280;52478;51.844;6.582;2023-08-07T11:30:44;101255.41;;;24.97
65738;BMP280;52478;51.844;6.582;2023-08-07T11:33:11;101253.38;;;24.97
65738;BMP280;52478;51.844;6.582;2023-08-07T11:35:40;101247.00;;;24.97
65738;BMP280;52478;51.844;6.582;2023-08-07T11:38:08;101254.09;;;24.98
65738;BMP280;52478;51.844;6.582;2023-08-07T11:40:35;101247.75;;;24.97
65738;BMP280;52478;51.844;6.582;2023-08-07T11:43:02;101259.91;;;25.00
65738;BMP280;52478;51.844;6.582;2023-08-07T11:45:28;101251.50;;;25.00
65738;BMP280;52478;51.844;6.582;2023-08-07T11:47:55;101244.06;;;25.02
65738;BMP280;52478;51.844;6.582;2023-08-07T11:50:23;101248.94;;;25.02
65738;BMP280;52478;51.844;6.582;2023-08-07T11:52:49;101248.19;;;25.01
65738;BMP280;52478;51.844;6.582;2023-08-07T11:55:17;101247.44;;;25.01
65738;BMP280;52478;51.844;6.582;2023-08-07T11:57:45;101251.50;;;25.00
65738;BMP280;52478;51.844;6.582;2023-08-07T12:00:13;101245.91;;;25.00
65738;BMP280;52478;51.844;6.582;2023-08-07T12:02:42;101246.66;;;25.00
65738;BMP280;52478;51.844;6.582;2023-08-07T12:05:09;101250.00;;;24.99
65738;BMP280;52478;51.844;6.582;2023-08-07T12:07:37;101247.00;;;24.97
65738;BMP280;52478;51.844;6.582;2023-08-07T12:10:04;101255.94;;;24.95
65738;BMP280;52478;51.844;6.582;2023-08-07T12:12:35;101247.31;;;24.93
65738;BMP280;52478;51.844;6.582;2023-08-07T12:15:02;101261.88;;;24.92
65738;BMP280;52478;51.844;6.582;2023-08-07T12:17:31;101263.19;;;24.91
65738;BMP280;52478;51.844;6.582;2023-08-07T12:19:58;101264.69;;;24.92
65738;BMP280;52478;51.844;6.582;2023-08-07T12:22:26;101265.44;;;24.92
65738;BMP280;52478;51.844;6.582;2023-08-07T12:24:53;101264.88;;;24.94
65738;BMP280;52478;51.844;6.582;2023-08-07T12:27:20;101253.47;;;24.92
65738;BMP280;52478;51.844;6.582;2023-08-07T12:29:47;101251.97;;;24.91
65738;BMP280;52478;51.844;6.582;2023-08-07T12:32:14;101266.28;;;24.87
65738;BMP280;52478;51.844;6.582;2023-08-07T12:34:40;101274.13;;;24.89
65738;BMP280;52478;51.844;6.582;2023-08-07T12:37:07;101277.19;;;24.91
65738;BMP280;52478;51.844;6.582;2023-08-07T12:39:34;101267.47;;;24.92
65738;BMP280;52478;51.844;6.582;2023-08-07T12:42:00;101272.00;;;24.95
65738;BMP280;52478;51.844;6.582;2023-08-07T12:44:29;101282.88;;;24.98
65738;BMP280;52478;51.844;6.582;2023-08-07T12:46:56;101279.97;;;25.04
65738;BMP280;52478;51.844;6.582;2023-08-07T12:49:23;101277.34;;;25.06
65738;BMP280;52478;51.844;6.582;2023-08-07T12:51:50;101266.13;;;25.06
65738;BMP280;52478;51.844;6.582;2023-08-07T12:54:17;101278.13;;;25.06
65738;BMP280;52478;51.844;6.582;2023-08-07T12:56:43;101276.06;;;25.07
65738;BMP280;52478;51.844;6.582;2023-08-07T12:59:09;101285.97;;;25.08
65738;BMP280;52478;51.844;6.582;2023-08-07T13:01:36;101283.38;;;25.10
65738;BMP280;52478;51.844;6.582;2023-08-07T13:04:04;101300.94;;;25.10
65738;BMP280;52478;51.844;6.582;2023-08-07T13:06:33;101296.09;;;25.11
65738;BMP280;52478;51.844;6.582;2023-08-07T13:09:00;101300.41;;;25.12
65738;BMP280;52478;51.844;6.582;2023-08-07T13:11:26;101292.22;;;25.14
65738;BMP280;52478;51.844;6.582;2023-08-07T13:13:53;101302.31;;;25.16
65738;BMP280;52478;51.844;6.582;2023-08-07T13:16:19;101302.53;;;25.18
65738;BMP280;52478;51.844;6.582;2023-08-07T13:18:46;101303.28;;;25.19
65738;BMP280;52478;51.844;6.582;2023-08-07T13:21:14;101302.75;;;25.20
65738;BMP280;52478;51.844;6.582;2023-08-07T13:23:40;101297.38;;;25.22
65738;BMP280;52478;51.844;6.582;2023-08-07T13:26:07;101292.50;;;25.23
65738;BMP280;52478;51.844;6.582;2023-08-07T13:28:33;101292.75;;;25.25
65738;BMP280;52478;51.844;6.582;2023-08-07T13:31:00;101296.25;;;25.25
65738;BMP280;52478;51.844;6.582;2023-08-07T13:33:27;101293.72;;;25.27
65738;BMP280;52478;51.844;6.582;2023-08-07T13:35:53;101300.81;;;25.28
65738;BMP280;52478;51.844;6.582;2023-08-07T13:38:21;101290.34;;;25.29
65738;BMP280;52478;51.844;6.582;2023-08-07T13:40:48;101298.22;;;25.30
65738;BMP280;52478;51.844;6.582;2023-08-07T13:43:16;101303.81;;;25.30
65738;BMP280;52478;51.844;6.582;2023-08-07T13:45:42;101303.81;;;25.30
65738;BMP280;52478;51.844;6.582;2023-08-07T13:48:09;101297.81;;;25.26
65738;BMP280;52478;51.844;6.582;2023-08-07T13:50:36;101300.81;;;25.28
65738;BMP280;52478;51.844;6.582;2023-08-07T13:53:04;101309.22;;;25.28
65738;BMP280;52478;51.844;6.582;2023-08-07T13:55:31;101300.81;;;25.28
65738;BMP280;52478;51.844;6.582;2023-08-07T13:57:58;101306.44;;;25.28